PADL/DLG METAR and TAF weather

Enter ICAO airport designator
Station Type Date Time Source
PADL METAR 2021/05/07 00:56 UTC NOAA

PADL 070056Z 18010KT 10SM CLR 10/01 A2974 RMK AO2 SLP073 T01000006


Station Type Date Time Source
PADL Decoded METAR 2021/05/07 00:56 UTC NOAA

Dillingham, Dillingham Airport, AK, United States (PADL) 59-03N 158-31W 29M
May 06, 2021 - 08:56 PM EDT / 2021.05.07 0056 UTC
Wind: from the S (180 degrees) at 12 MPH (10 KT):0
Visibility: 10 mile(s):0
Sky conditions: clear
Temperature: 50.0 F (10.0 C)
Dew Point: 33.1 F (0.6 C)
Relative Humidity: 51%
Pressure (altimeter): 29.74 in. Hg (1007 hPa)
ob: PADL 070056Z 18010KT 10SM CLR 10/01 A2974 RMK AO2 SLP073 T01000006
cycle: 1

Station Type Date Time Source
PADL TAF 2021/05/06 18:21 UTC NOAA

TAF PADL 061720Z 0618/0718 VRB06KT P6SM SKC

Example: see airport list